createdAt,value
2018-07-06T00:00:40.276Z,18.10
2018-07-06T00:01:40.300Z,18.10
2018-07-06T00:02:40.326Z,18.09
2018-07-06T00:03:40.343Z,18.05
2018-07-06T00:04:40.372Z,18.13
2018-07-06T00:05:40.396Z,18.19
2018-07-06T00:06:40.421Z,18.17
2018-07-06T00:07:40.443Z,18.05
2018-07-06T00:08:40.463Z,18.10
2018-07-06T00:09:40.498Z,17.98
2018-07-06T00:10:40.515Z,18.07
2018-07-06T00:11:40.537Z,18.04
2018-07-06T00:12:40.565Z,18.05
2018-07-06T00:13:40.594Z,17.99
2018-07-06T00:14:40.609Z,18.13
2018-07-06T00:15:40.640Z,17.95
2018-07-06T00:16:40.657Z,18.04
2018-07-06T00:17:40.686Z,18.16
2018-07-06T00:18:40.704Z,18.19
2018-07-06T00:19:40.732Z,18.16
2018-07-06T00:20:40.752Z,18.13
2018-07-06T00:21:40.779Z,18.16
2018-07-06T00:22:40.802Z,18.17
2018-07-06T00:23:40.829Z,18.16
2018-07-06T00:24:40.852Z,18.21
2018-07-06T00:25:40.872Z,18.19
2018-07-06T00:26:40.899Z,18.14
2018-07-06T00:27:40.923Z,18.13
2018-07-06T00:28:40.945Z,18.16
2018-07-06T00:29:40.974Z,18.23
2018-07-06T00:30:40.992Z,18.16
2018-07-06T00:31:41.016Z,18.13
2018-07-06T00:32:41.047Z,18.14
2018-07-06T00:33:41.073Z,18.16
2018-07-06T00:34:41.099Z,18.17
2018-07-06T00:35:41.123Z,18.21
2018-07-06T00:36:41.172Z,18.17
2018-07-06T00:37:41.164Z,18.14
2018-07-06T00:38:41.183Z,18.23
2018-07-06T00:39:41.210Z,18.21
2018-07-06T00:40:41.237Z,18.13
2018-07-06T00:41:41.269Z,18.19
2018-07-06T00:42:41.285Z,18.16
2018-07-06T00:43:41.305Z,18.16
2018-07-06T00:44:41.326Z,18.09
2018-07-06T00:45:41.350Z,18.05
2018-07-06T00:46:41.379Z,18.14
2018-07-06T00:47:41.402Z,18.11
2018-07-06T00:48:41.440Z,18.05
2018-07-06T00:49:41.447Z,18.16
2018-07-06T00:50:41.469Z,18.05
2018-07-06T00:51:41.497Z,18.05
2018-07-06T00:52:41.520Z,18.05
2018-07-06T00:53:41.542Z,18.01
2018-07-06T00:54:41.589Z,18.05
2018-07-06T00:55:41.587Z,18.04
2018-07-06T00:56:41.616Z,17.96
2018-07-06T00:57:41.637Z,18.04
2018-07-06T00:58:41.665Z,18.09
2018-07-06T00:59:41.689Z,18.02
2018-07-06T01:00:41.709Z,18.17
2018-07-06T01:01:41.834Z,18.02
2018-07-06T01:02:41.762Z,18.05
2018-07-06T01:03:41.784Z,18.02
2018-07-06T01:04:41.807Z,17.99
2018-07-06T01:05:41.825Z,18.01
2018-07-06T01:06:41.855Z,18.04
2018-07-06T01:07:41.877Z,18.01
2018-07-06T01:08:41.902Z,18.02
2018-07-06T01:09:41.927Z,18.09
2018-07-06T01:10:41.949Z,18.01
2018-07-06T01:11:41.970Z,18.01
2018-07-06T01:12:41.995Z,18.01
2018-07-06T01:13:42.020Z,18.07
2018-07-06T01:14:42.045Z,18.02
2018-07-06T01:15:42.073Z,18.04
2018-07-06T01:16:42.094Z,18.10
2018-07-06T01:17:42.124Z,18.05
2018-07-06T01:18:42.141Z,18.16
2018-07-06T01:19:42.161Z,18.13
2018-07-06T01:20:42.187Z,18.16
2018-07-06T01:21:42.209Z,18.07
2018-07-06T01:22:42.230Z,18.16
2018-07-06T01:23:42.260Z,18.05
2018-07-06T01:24:42.285Z,18.19
2018-07-06T01:25:42.312Z,18.05
2018-07-06T01:26:42.331Z,18.05
2018-07-06T01:27:42.354Z,18.09
2018-07-06T01:28:42.381Z,18.10
2018-07-06T01:29:42.401Z,18.04
2018-07-06T01:30:42.428Z,17.98
2018-07-06T01:31:42.449Z,18.01
2018-07-06T01:32:42.475Z,18.01
2018-07-06T01:33:42.499Z,18.02
2018-07-06T01:34:42.525Z,18.09
2018-07-06T01:35:42.545Z,18.01
2018-07-06T01:36:42.563Z,18.05
2018-07-06T01:37:42.591Z,18.04
2018-07-06T01:38:42.617Z,18.02
2018-07-06T01:39:42.640Z,18.05
2018-07-06T01:40:42.664Z,18.05
2018-07-06T01:41:42.691Z,18.07
2018-07-06T01:42:42.708Z,18.10
2018-07-06T01:43:42.733Z,18.16
2018-07-06T01:44:42.764Z,18.20
2018-07-06T01:45:42.781Z,18.19
2018-07-06T01:46:42.806Z,18.14
2018-07-06T01:47:42.849Z,18.16
2018-07-06T01:48:42.854Z,18.23
2018-07-06T01:49:42.875Z,18.21
2018-07-06T01:50:42.901Z,18.20
2018-07-06T01:51:42.927Z,18.16
2018-07-06T01:52:42.945Z,18.19
2018-07-06T01:53:42.968Z,18.14
2018-07-06T01:54:42.997Z,18.14
2018-07-06T01:55:43.021Z,18.25
2018-07-06T01:56:43.044Z,18.17
2018-07-06T01:57:43.074Z,18.17
2018-07-06T01:58:43.092Z,18.16
2018-07-06T01:59:43.116Z,18.13
2018-07-06T02:00:43.141Z,18.11
2018-07-06T02:01:43.161Z,18.05
2018-07-06T02:02:43.188Z,18.02
2018-07-06T02:03:43.211Z,18.05
2018-07-06T02:04:43.231Z,18.04
2018-07-06T02:05:43.256Z,18.05
2018-07-06T02:06:43.284Z,18.16
2018-07-06T02:07:43.303Z,18.20
2018-07-06T02:08:43.329Z,18.21
2018-07-06T02:09:43.349Z,18.20
2018-07-06T02:10:43.385Z,18.17
2018-07-06T02:11:43.403Z,18.20
2018-07-06T02:12:43.425Z,18.20
2018-07-06T02:13:43.451Z,18.07
2018-07-06T02:14:43.469Z,18.05
2018-07-06T02:15:43.499Z,18.01
2018-07-06T02:16:43.525Z,17.98
2018-07-06T02:17:43.546Z,18.01
2018-07-06T02:18:43.565Z,18.04
2018-07-06T02:19:43.593Z,17.99
2018-07-06T02:20:43.611Z,17.98
2018-07-06T02:21:43.635Z,17.99
2018-07-06T02:22:43.657Z,17.96
2018-07-06T02:23:43.683Z,17.96
2018-07-06T02:24:43.711Z,17.96
2018-07-06T02:25:43.733Z,18.09
2018-07-06T02:26:43.759Z,18.02
2018-07-06T02:27:43.784Z,18.07
2018-07-06T02:28:43.801Z,17.99
2018-07-06T02:29:43.833Z,17.98
2018-07-06T02:30:43.850Z,18.02
2018-07-06T02:31:43.873Z,18.01
2018-07-06T02:33:43.921Z,18.10
2018-07-06T02:34:43.947Z,17.99
2018-07-06T02:35:43.966Z,18.05
2018-07-06T02:36:43.991Z,18.07
2018-07-06T02:37:44.019Z,18.14
2018-07-06T02:38:44.041Z,18.05
2018-07-06T02:39:45.493Z,17.98
2018-07-06T02:40:44.101Z,17.96
2018-07-06T02:41:44.123Z,18.04
2018-07-06T02:42:44.866Z,18.01
2018-07-06T02:43:44.187Z,18.05
2018-07-06T02:44:44.193Z,18.04
2018-07-06T02:45:44.213Z,18.10
2018-07-06T02:46:44.236Z,18.19
2018-07-06T02:47:44.267Z,18.16
2018-07-06T02:48:44.309Z,18.20
2018-07-06T02:50:44.331Z,18.25
2018-07-06T02:51:44.379Z,18.23
2018-07-06T02:52:44.403Z,18.23
2018-07-06T02:53:44.424Z,18.13
2018-07-06T02:54:44.447Z,18.02
2018-07-06T02:55:44.489Z,18.11
2018-07-06T02:56:44.708Z,18.19
2018-07-06T02:57:44.509Z,18.13
2018-07-06T02:58:44.531Z,18.16
2018-07-06T02:59:44.572Z,17.96
2018-07-06T03:00:44.583Z,18.05
2018-07-06T03:01:44.625Z,18.01
2018-07-06T03:02:44.641Z,18.02
2018-07-06T03:03:44.675Z,18.04
2018-07-06T03:04:44.710Z,18.02
2018-07-06T03:05:44.719Z,17.95
2018-07-06T03:06:44.742Z,17.96
2018-07-06T03:07:45.079Z,17.98
2018-07-06T03:08:44.793Z,18.04
2018-07-06T03:10:44.845Z,17.94
2018-07-06T03:11:44.870Z,17.99
2018-07-06T03:12:44.891Z,17.95
2018-07-06T03:13:44.922Z,17.92
2018-07-06T03:14:45.131Z,17.95
2018-07-06T03:15:45.375Z,17.83
2018-07-06T03:17:45.020Z,17.84
2018-07-06T03:19:45.071Z,17.86
2018-07-06T03:20:45.089Z,17.89
2018-07-06T03:21:45.320Z,17.80
2018-07-06T03:24:45.187Z,17.84
2018-07-06T03:25:45.722Z,17.77
2018-07-06T03:27:45.255Z,17.80
2018-07-06T03:28:45.467Z,17.81
2018-07-06T03:29:45.296Z,17.83
2018-07-06T03:30:45.323Z,17.83
2018-07-06T03:31:45.347Z,17.81
2018-07-06T03:32:45.369Z,17.83
2018-07-06T03:33:45.394Z,17.83
2018-07-06T03:34:45.424Z,17.86
2018-07-06T03:35:45.439Z,17.81
2018-07-06T03:36:45.471Z,17.83
2018-07-06T03:37:45.498Z,17.89
2018-07-06T03:38:45.524Z,17.87
2018-07-06T03:39:45.545Z,17.86
2018-07-06T03:40:45.563Z,17.77
2018-07-06T03:41:45.589Z,17.84
2018-07-06T03:42:45.614Z,17.92
2018-07-06T03:43:45.645Z,17.87
2018-07-06T03:44:45.667Z,17.74
2018-07-06T03:45:45.694Z,17.86
2018-07-06T03:46:45.715Z,17.87
2018-07-06T03:47:45.747Z,17.83
2018-07-06T03:48:45.767Z,17.77
2018-07-06T03:49:45.791Z,17.89
2018-07-06T03:50:45.821Z,17.83
2018-07-06T03:51:45.835Z,17.87
2018-07-06T03:52:45.864Z,17.91
2018-07-06T03:53:45.888Z,17.86
2018-07-06T03:54:45.910Z,17.79
2018-07-06T03:55:45.935Z,17.77
2018-07-06T03:56:45.964Z,17.73
2018-07-06T03:57:45.986Z,17.65
2018-07-06T03:58:46.011Z,17.63
2018-07-06T03:59:46.034Z,17.79
2018-07-06T04:00:46.058Z,17.63
2018-07-06T04:01:46.084Z,17.68
2018-07-06T04:02:46.107Z,17.62
2018-07-06T04:03:46.138Z,17.76
2018-07-06T04:04:46.160Z,17.76
2018-07-06T04:05:46.182Z,17.73
2018-07-06T04:06:46.203Z,17.86
2018-07-06T04:07:46.226Z,17.84
2018-07-06T04:08:46.257Z,17.77
2018-07-06T04:09:46.279Z,17.84
2018-07-06T04:10:46.306Z,17.83
2018-07-06T04:11:46.334Z,17.87
2018-07-06T04:12:46.353Z,17.73
2018-07-06T04:13:46.377Z,17.77
2018-07-06T04:14:46.397Z,17.77
2018-07-06T04:15:46.436Z,17.81
2018-07-06T04:16:46.451Z,17.74
2018-07-06T04:17:46.478Z,17.76
2018-07-06T04:18:46.506Z,17.66
2018-07-06T04:19:46.533Z,17.66
2018-07-06T04:20:46.547Z,17.63
2018-07-06T04:21:46.571Z,17.63
2018-07-06T04:22:46.600Z,17.63
2018-07-06T04:23:46.623Z,17.65
2018-07-06T04:24:46.652Z,17.66
2018-07-06T04:25:46.672Z,17.66
2018-07-06T04:26:46.699Z,17.55
2018-07-06T04:27:46.719Z,17.65
2018-07-06T04:28:46.753Z,17.63
2018-07-06T04:29:46.774Z,17.62
2018-07-06T04:30:46.793Z,17.54
2018-07-06T04:31:46.827Z,17.65
2018-07-06T04:32:46.843Z,17.70
2018-07-06T04:33:46.873Z,17.65
2018-07-06T04:34:46.894Z,17.81
2018-07-06T04:35:46.922Z,17.74
2018-07-06T04:36:46.944Z,17.79
2018-07-06T04:37:46.968Z,17.80
2018-07-06T04:38:46.994Z,17.74
2018-07-06T04:39:47.021Z,17.74
2018-07-06T04:40:47.043Z,17.66
2018-07-06T04:41:47.061Z,17.58
2018-07-06T04:42:47.089Z,17.65
2018-07-06T04:43:47.120Z,17.60
2018-07-06T04:44:47.138Z,17.70
2018-07-06T04:45:47.167Z,17.66
2018-07-06T04:46:47.189Z,17.73
2018-07-06T04:47:47.210Z,17.66
2018-07-06T04:48:47.244Z,17.60
2018-07-06T04:49:47.262Z,17.74
2018-07-06T04:50:47.286Z,17.66
2018-07-06T04:51:47.314Z,17.71
2018-07-06T04:52:47.337Z,17.66
2018-07-06T04:53:47.358Z,17.68
2018-07-06T04:54:47.382Z,17.62
2018-07-06T04:55:47.416Z,17.57
2018-07-06T04:56:47.432Z,17.55
2018-07-06T04:57:47.456Z,17.49
2018-07-06T04:58:47.490Z,17.51
2018-07-06T04:59:47.537Z,17.63
2018-07-06T05:00:47.533Z,17.63
2018-07-06T05:01:47.558Z,17.76
2018-07-06T05:02:47.583Z,17.76
2018-07-06T05:03:47.605Z,17.79
2018-07-06T05:04:47.626Z,17.81
2018-07-06T05:05:47.657Z,17.81
2018-07-06T05:06:47.683Z,17.77
2018-07-06T05:07:47.735Z,17.87
2018-07-06T05:08:47.729Z,17.79
2018-07-06T05:09:47.752Z,17.87
2018-07-06T05:10:47.775Z,17.86
2018-07-06T05:11:47.802Z,17.89
2018-07-06T05:12:47.825Z,17.84
2018-07-06T05:13:47.850Z,17.80
2018-07-06T05:14:47.876Z,17.95
2018-07-06T05:15:47.900Z,17.98
2018-07-06T05:16:48.060Z,17.95
2018-07-06T05:17:47.950Z,17.95
2018-07-06T05:18:47.980Z,17.91
2018-07-06T05:19:47.998Z,17.98
2018-07-06T05:20:48.028Z,18.04
2018-07-06T05:21:48.049Z,17.98
2018-07-06T05:22:48.071Z,18.04
2018-07-06T05:23:48.100Z,18.01
2018-07-06T05:24:48.124Z,18.04
2018-07-06T05:25:48.145Z,17.98
2018-07-06T05:26:48.170Z,18.04
2018-07-06T05:27:48.195Z,18.05
2018-07-06T05:28:48.221Z,17.94
2018-07-06T05:29:48.248Z,18.02
2018-07-06T05:30:48.268Z,18.07
2018-07-06T05:31:48.294Z,18.09
2018-07-06T05:32:48.321Z,18.05
2018-07-06T05:33:48.347Z,18.13
2018-07-06T05:34:48.372Z,18.16
2018-07-06T05:35:48.398Z,18.16
2018-07-06T05:36:48.418Z,18.17
2018-07-06T05:37:48.481Z,18.20
2018-07-06T05:38:48.467Z,18.07
2018-07-06T05:39:48.489Z,18.04
2018-07-06T05:40:48.521Z,18.17
2018-07-06T05:41:48.541Z,18.05
2018-07-06T05:42:48.569Z,18.11
2018-07-06T05:43:48.600Z,18.10
2018-07-06T05:44:48.617Z,18.17
2018-07-06T05:45:48.639Z,18.23
2018-07-06T05:46:48.670Z,18.23
2018-07-06T05:47:48.704Z,18.28
2018-07-06T05:48:48.714Z,18.23
2018-07-06T05:49:48.742Z,18.36
2018-07-06T05:50:48.765Z,18.36
2018-07-06T05:51:48.789Z,18.26
2018-07-06T05:52:48.818Z,18.20
2018-07-06T05:53:48.936Z,18.34
2018-07-06T05:54:48.867Z,18.23
2018-07-06T05:55:48.893Z,18.26
2018-07-06T05:56:48.913Z,18.28
2018-07-06T05:57:48.939Z,18.32
2018-07-06T05:58:48.971Z,18.23
2018-07-06T05:59:48.988Z,18.34
2018-07-06T06:00:49.021Z,18.31
2018-07-06T06:01:49.041Z,18.31
2018-07-06T06:02:49.065Z,18.36
2018-07-06T06:03:49.088Z,18.29
2018-07-06T06:04:49.114Z,18.29
2018-07-06T06:05:49.133Z,18.25
2018-07-06T06:06:49.159Z,18.28
2018-07-06T06:07:49.197Z,18.34
2018-07-06T06:08:49.212Z,18.38
2018-07-06T06:09:49.242Z,18.32
2018-07-06T06:10:49.265Z,18.31
2018-07-06T06:11:49.288Z,18.23
2018-07-06T06:12:49.310Z,18.23
2018-07-06T06:13:49.341Z,18.17
2018-07-06T06:14:49.419Z,18.25
2018-07-06T06:15:49.383Z,18.23
2018-07-06T06:16:49.410Z,18.36
2018-07-06T06:17:49.438Z,18.29
2018-07-06T06:18:49.548Z,18.36
2018-07-06T06:19:49.486Z,18.26
2018-07-06T06:20:49.511Z,18.23
2018-07-06T06:21:49.541Z,18.23
2018-07-06T06:22:49.565Z,18.36
2018-07-06T06:23:49.585Z,18.35
2018-07-06T06:24:49.664Z,18.34
2018-07-06T06:25:49.639Z,18.39
2018-07-06T06:26:49.669Z,18.35
2018-07-06T06:27:49.689Z,18.57
2018-07-06T06:28:49.714Z,18.47
2018-07-06T06:29:49.744Z,18.35
2018-07-06T06:30:49.764Z,18.34
2018-07-06T06:31:49.789Z,18.29
2018-07-06T06:32:49.858Z,18.34
2018-07-06T06:33:50.030Z,18.35
2018-07-06T06:34:49.866Z,18.29
2018-07-06T06:35:49.889Z,18.36
2018-07-06T06:36:49.915Z,18.29
2018-07-06T06:37:49.941Z,18.35
2018-07-06T06:38:49.962Z,18.20
2018-07-06T06:39:49.994Z,18.38
2018-07-06T06:40:50.019Z,18.36
2018-07-06T06:41:50.037Z,18.36
2018-07-06T06:42:50.065Z,18.25
2018-07-06T06:43:50.089Z,18.19
2018-07-06T06:44:50.148Z,18.16
2018-07-06T06:45:50.137Z,18.29
2018-07-06T06:46:50.168Z,18.32
2018-07-06T06:47:50.195Z,18.25
2018-07-06T06:48:50.218Z,18.05
2018-07-06T06:49:50.245Z,18.01
2018-07-06T06:50:50.267Z,18.16
2018-07-06T06:51:50.289Z,18.14
2018-07-06T06:52:50.319Z,18.26
2018-07-06T06:53:50.345Z,18.20
2018-07-06T06:54:50.366Z,18.21
2018-07-06T06:55:50.392Z,18.19
2018-07-06T06:56:50.414Z,18.19
2018-07-06T06:57:50.443Z,18.25
2018-07-06T06:58:50.461Z,17.99
2018-07-06T06:59:50.487Z,18.04
2018-07-06T07:00:50.523Z,17.96
2018-07-06T07:01:50.542Z,18.09
2018-07-06T07:02:50.565Z,18.17
2018-07-06T07:03:50.589Z,18.16
2018-07-06T07:04:50.618Z,18.20
2018-07-06T07:05:50.639Z,18.21
2018-07-06T07:06:50.669Z,18.19
2018-07-06T07:07:50.717Z,18.20
2018-07-06T07:08:50.712Z,18.20
2018-07-06T07:09:50.735Z,18.04
2018-07-06T07:10:50.766Z,17.96
2018-07-06T07:11:50.795Z,18.17
2018-07-06T07:12:50.811Z,18.23
2018-07-06T07:13:50.952Z,18.14
2018-07-06T07:14:50.865Z,18.19
2018-07-06T07:15:50.886Z,18.16
2018-07-06T07:16:50.907Z,18.10
2018-07-06T07:17:50.938Z,18.07
2018-07-06T07:18:50.969Z,18.04
2018-07-06T07:19:50.986Z,18.05
2018-07-06T07:20:51.014Z,18.10
2018-07-06T07:21:51.042Z,18.11
2018-07-06T07:22:51.063Z,18.17
2018-07-06T07:23:51.088Z,18.25
2018-07-06T07:24:51.120Z,18.25
2018-07-06T07:25:51.137Z,18.16
2018-07-06T07:26:51.163Z,18.19
2018-07-06T07:27:51.192Z,18.16
2018-07-06T07:28:51.207Z,18.32
2018-07-06T07:29:51.240Z,18.29
2018-07-06T07:30:51.262Z,18.32
2018-07-06T07:31:51.296Z,18.28
2018-07-06T07:32:51.307Z,18.41
2018-07-06T07:33:51.341Z,18.44
2018-07-06T07:34:51.359Z,18.39
2018-07-06T07:35:51.387Z,18.21
2018-07-06T07:36:51.411Z,18.28
2018-07-06T07:37:51.431Z,18.19
2018-07-06T07:38:51.524Z,18.35
2018-07-06T07:39:51.490Z,18.32
2018-07-06T07:40:51.514Z,18.38
2018-07-06T07:41:51.537Z,18.31
2018-07-06T07:42:51.557Z,18.28
2018-07-06T07:43:51.583Z,18.34
2018-07-06T07:44:51.611Z,18.36
2018-07-06T07:45:51.643Z,18.31
2018-07-06T07:46:51.667Z,18.29
2018-07-06T07:47:51.691Z,18.35
2018-07-06T07:48:51.708Z,18.32
2018-07-06T07:49:51.738Z,18.41
2018-07-06T07:50:51.763Z,18.41
2018-07-06T07:51:51.791Z,18.50
2018-07-06T07:52:51.805Z,18.41
2018-07-06T07:53:51.837Z,18.51
2018-07-06T07:54:51.864Z,18.56
2018-07-06T07:55:51.890Z,18.59
2018-07-06T07:56:51.915Z,18.60
2018-07-06T07:57:51.939Z,18.71
2018-07-06T07:58:51.969Z,18.69
2018-07-06T07:59:51.993Z,18.66
2018-07-06T08:00:52.109Z,18.71
2018-07-06T08:01:52.041Z,18.72
2018-07-06T08:02:52.061Z,18.68
2018-07-06T08:03:52.088Z,18.62
2018-07-06T08:04:52.115Z,18.60
2018-07-06T08:05:52.135Z,18.84
2018-07-06T08:06:52.169Z,19.12
2018-07-06T08:07:52.191Z,19.20
2018-07-06T08:08:52.215Z,19.24
2018-07-06T08:09:52.246Z,19.21
2018-07-06T08:10:52.264Z,19.23
2018-07-06T08:11:52.355Z,19.30
2018-07-06T08:12:52.322Z,19.25
2018-07-06T08:13:52.340Z,19.20
2018-07-06T08:14:52.366Z,19.34
2018-07-06T08:15:52.401Z,19.38
2018-07-06T08:16:53.836Z,19.42
2018-07-06T08:17:52.445Z,19.47
2018-07-06T08:19:41.043Z,19.72
2018-07-06T08:20:40.055Z,19.87
2018-07-06T08:21:40.083Z,19.94
2018-07-06T08:22:40.113Z,20.04
2018-07-06T08:23:40.136Z,19.89
2018-07-06T08:24:40.162Z,19.87
2018-07-06T08:25:40.310Z,19.79
2018-07-06T08:26:40.228Z,19.80
2018-07-06T08:27:40.240Z,19.68
2018-07-06T08:28:40.280Z,19.46
2018-07-06T08:29:40.495Z,19.38
2018-07-06T08:30:40.520Z,19.32
2018-07-06T08:31:40.486Z,19.58
2018-07-06T08:32:40.389Z,19.87
2018-07-06T08:33:40.621Z,19.89
2018-07-06T08:34:40.418Z,19.87
2018-07-06T08:35:40.449Z,19.87
2018-07-06T08:36:40.488Z,19.86
2018-07-06T08:37:40.527Z,19.97
2018-07-06T08:38:40.546Z,20.04
2018-07-06T08:39:40.693Z,19.98
2018-07-06T08:40:40.578Z,20.04
2018-07-06T08:41:40.619Z,20.07
2018-07-06T08:42:40.635Z,20.08
2018-07-06T08:43:40.709Z,20.19
2018-07-06T08:44:40.704Z,20.23
2018-07-06T08:45:40.709Z,20.22
2018-07-06T08:46:40.738Z,20.31
2018-07-06T08:47:40.788Z,20.16
2018-07-06T08:48:40.789Z,19.95
2018-07-06T08:49:40.821Z,19.80
2018-07-06T08:50:40.863Z,19.64
2018-07-06T08:51:40.869Z,19.67
2018-07-06T08:52:40.894Z,19.67
2018-07-06T08:53:41.119Z,19.68
2018-07-06T08:54:40.962Z,19.82
2018-07-06T08:55:41.006Z,19.65
2018-07-06T08:56:41.018Z,19.70
2018-07-06T08:57:41.023Z,19.55
2018-07-06T08:58:41.114Z,19.67
2018-07-06T08:59:41.296Z,19.61
2018-07-06T09:00:41.110Z,19.71
2018-07-06T09:02:41.174Z,19.92
2018-07-06T09:03:41.191Z,20.01
2018-07-06T09:04:41.281Z,20.07
2018-07-06T09:05:41.251Z,20.10
2018-07-06T09:07:41.353Z,20.13
2018-07-06T09:08:41.307Z,20.05
2018-07-06T09:09:41.539Z,20.12
2018-07-06T09:10:41.388Z,20.07
2018-07-06T09:11:41.407Z,19.94
2018-07-06T09:12:41.416Z,19.97
2018-07-06T09:13:41.438Z,20.08
2018-07-06T09:14:41.468Z,20.12
2018-07-06T09:15:41.499Z,20.02
2018-07-06T09:16:41.530Z,20.05
2018-07-06T09:17:41.566Z,19.97
2018-07-06T09:18:41.888Z,19.92
2018-07-06T09:19:41.783Z,19.94
2018-07-06T09:20:41.633Z,19.92
2018-07-06T09:21:41.643Z,19.98
2018-07-06T09:22:41.996Z,19.95
2018-07-06T09:23:41.719Z,19.90
2018-07-06T09:24:41.756Z,19.95
2018-07-06T09:25:41.871Z,19.72
2018-07-06T09:26:41.775Z,19.87
2018-07-06T09:27:41.804Z,19.97
2018-07-06T09:28:41.822Z,19.87
2018-07-06T09:29:41.860Z,19.87
2018-07-06T09:30:41.876Z,19.92
2018-07-06T09:31:41.926Z,19.92
2018-07-06T09:32:41.928Z,20.00
2018-07-06T09:33:41.958Z,19.98
2018-07-06T09:34:41.982Z,20.07
2018-07-06T09:35:42.030Z,19.97
2018-07-06T09:36:42.034Z,19.86
2018-07-06T09:37:42.077Z,19.72
2018-07-06T09:38:42.103Z,19.79
2018-07-06T09:39:42.129Z,19.83
2018-07-06T09:40:42.356Z,19.87
2018-07-06T09:41:42.163Z,20.10
2018-07-06T09:42:42.182Z,19.97
2018-07-06T09:43:42.212Z,19.92
2018-07-06T09:44:42.554Z,19.87
2018-07-06T09:45:42.464Z,19.90
2018-07-06T09:46:42.319Z,19.95
2018-07-06T09:47:42.316Z,19.95
2018-07-06T09:48:42.361Z,20.10
2018-07-06T09:49:42.382Z,20.07
2018-07-06T09:50:42.413Z,20.04
2018-07-06T09:51:42.414Z,20.13
2018-07-06T09:52:42.465Z,20.08
2018-07-06T09:53:42.787Z,20.15
2018-07-06T09:55:42.518Z,20.15
2018-07-06T09:56:42.561Z,20.17
2018-07-06T09:57:42.570Z,20.19
2018-07-06T09:58:43.018Z,20.04
2018-07-06T09:59:42.621Z,20.12
2018-07-06T10:00:42.716Z,20.17
2018-07-06T10:02:43.229Z,20.19
2018-07-06T10:03:42.738Z,20.20
2018-07-06T10:04:42.948Z,20.30
2018-07-06T10:05:42.851Z,20.40
2018-07-06T10:06:43.322Z,20.42
2018-07-06T10:07:42.839Z,20.26
2018-07-06T10:08:42.865Z,20.25
2018-07-06T10:09:42.905Z,20.44
2018-07-06T10:10:42.900Z,20.38
2018-07-06T10:11:42.927Z,20.38
2018-07-06T10:13:42.978Z,20.51
2018-07-06T10:14:43.016Z,20.42
2018-07-06T10:15:43.240Z,20.46
2018-07-06T10:16:43.058Z,20.58
2018-07-06T10:17:43.308Z,20.58
2018-07-06T10:18:43.126Z,20.46
2018-07-06T10:19:43.157Z,20.46
2018-07-06T10:20:43.489Z,20.50
2018-07-06T10:21:43.384Z,20.50
2018-07-06T10:23:43.239Z,20.48
2018-07-06T10:24:43.277Z,20.53
2018-07-06T10:25:43.618Z,20.51
2018-07-06T10:26:43.534Z,20.50
2018-07-06T10:27:43.352Z,20.25
2018-07-06T10:28:43.384Z,20.42
2018-07-06T10:29:43.407Z,20.30
2018-07-06T10:30:43.735Z,20.30
2018-07-06T10:31:43.459Z,20.46
2018-07-06T10:32:43.472Z,20.51
2018-07-06T10:33:44.087Z,20.41
2018-07-06T10:34:43.552Z,20.46
2018-07-06T10:35:43.560Z,20.48
2018-07-06T10:36:43.584Z,20.46
2018-07-06T10:38:43.619Z,20.54
2018-07-06T10:39:43.694Z,20.46
2018-07-06T10:40:43.693Z,20.53
2018-07-06T10:41:43.696Z,20.60
2018-07-06T10:42:43.748Z,20.57
2018-07-06T10:43:43.766Z,20.58
2018-07-06T10:44:43.997Z,20.75
2018-07-06T10:45:43.802Z,20.82
2018-07-06T10:46:44.094Z,20.83
2018-07-06T10:47:43.849Z,20.79
2018-07-06T10:48:44.098Z,20.73
2018-07-06T10:49:43.919Z,20.78
2018-07-06T10:50:44.330Z,20.72
2018-07-06T10:51:43.956Z,20.75
2018-07-06T10:52:44.192Z,20.88
2018-07-06T10:53:44.029Z,20.98
2018-07-06T10:54:44.049Z,21.15
2018-07-06T10:55:44.087Z,21.09
2018-07-06T10:56:44.109Z,21.16
2018-07-06T10:57:44.122Z,21.21
2018-07-06T10:58:44.153Z,21.27
2018-07-06T10:59:44.183Z,21.34
2018-07-06T11:00:44.519Z,21.45
2018-07-06T11:01:44.225Z,21.55
2018-07-06T11:02:44.240Z,21.66
2018-07-06T11:03:44.286Z,21.81
2018-07-06T11:04:44.516Z,21.93
2018-07-06T11:05:44.320Z,21.83
2018-07-06T11:06:44.674Z,21.68
2018-07-06T11:07:44.376Z,21.79
2018-07-06T11:08:44.410Z,21.74
2018-07-06T11:09:44.429Z,21.83
2018-07-06T11:10:44.452Z,21.86
2018-07-06T11:18:45.509Z,25.85
2018-07-06T11:19:45.129Z,26.56
2018-07-06T11:23:44.828Z,28.23
2018-07-06T11:24:44.855Z,28.45
2018-07-06T11:25:44.886Z,28.70
2018-07-06T11:26:44.919Z,29.14
2018-07-06T11:27:44.948Z,29.11
2018-07-06T11:28:44.980Z,29.39
2018-07-06T11:29:45.024Z,29.33
2018-07-06T11:30:45.038Z,29.18
2018-07-06T11:31:45.082Z,28.57
2018-07-06T11:32:45.115Z,29.37
2018-07-06T11:33:45.140Z,28.85
2018-07-06T11:34:45.178Z,28.80
2018-07-06T11:35:45.206Z,28.94
2018-07-06T11:36:45.240Z,29.30
2018-07-06T11:37:45.277Z,29.08
2018-07-06T11:38:45.311Z,29.36
2018-07-06T11:39:45.340Z,28.33
2018-07-06T11:40:45.379Z,27.88
2018-07-06T11:41:45.406Z,27.45
2018-07-06T11:42:45.438Z,27.90
2018-07-06T11:43:45.470Z,27.62
2018-07-06T11:44:45.561Z,27.48
2018-07-06T11:45:45.546Z,27.83
2018-07-06T11:46:45.577Z,28.13
2018-07-06T11:47:45.611Z,28.11
2018-07-06T11:48:45.647Z,28.57
2018-07-06T11:49:45.684Z,28.30
2018-07-06T11:50:45.712Z,27.98
2018-07-06T11:51:45.756Z,28.64
2018-07-06T11:52:45.795Z,28.76
2018-07-06T11:53:45.828Z,28.82
2018-07-06T11:54:45.852Z,29.00
2018-07-06T11:55:45.893Z,29.51
2018-07-06T11:56:47.532Z,30.36
2018-07-06T11:57:45.957Z,29.94
2018-07-06T11:58:45.994Z,30.42
2018-07-06T11:59:46.033Z,30.40
2018-07-06T12:00:46.068Z,30.38
2018-07-06T12:01:46.137Z,30.40
2018-07-06T12:02:46.134Z,30.38
2018-07-06T12:03:46.178Z,30.01
2018-07-06T12:04:46.205Z,30.64
2018-07-06T12:05:46.242Z,30.83
2018-07-06T12:06:46.285Z,31.45
2018-07-06T12:07:46.313Z,31.90
2018-07-06T12:08:46.349Z,31.53
2018-07-06T12:09:46.387Z,30.34
2018-07-06T12:10:46.421Z,30.57
2018-07-06T12:11:46.462Z,30.70
2018-07-06T12:12:46.497Z,30.98
2018-07-06T12:13:46.531Z,30.96
2018-07-06T12:14:46.566Z,30.68
2018-07-06T12:15:46.610Z,30.49
2018-07-06T12:16:46.640Z,30.70
2018-07-06T12:17:46.674Z,29.95
2018-07-06T12:18:46.717Z,30.21
2018-07-06T12:19:46.748Z,30.40
2018-07-06T12:20:46.892Z,30.57
2018-07-06T12:21:46.825Z,30.64
2018-07-06T12:22:46.864Z,30.57
2018-07-06T12:23:46.902Z,30.22
2018-07-06T12:24:46.932Z,29.97
2018-07-06T12:25:46.976Z,29.48
2018-07-06T12:26:47.007Z,29.33
2018-07-06T12:27:47.095Z,29.44
2018-07-06T12:28:47.080Z,29.18
2018-07-06T12:29:47.115Z,29.58
2018-07-06T12:30:47.149Z,30.06
2018-07-06T12:31:47.190Z,30.61
2018-07-06T12:32:47.228Z,30.88
2018-07-06T12:33:47.268Z,30.79
2018-07-06T12:34:47.302Z,30.70
2018-07-06T12:35:47.343Z,30.03
2018-07-06T12:36:47.414Z,29.66
2018-07-06T12:37:47.407Z,29.67
2018-07-06T12:38:47.452Z,30.75
2018-07-06T12:39:47.483Z,30.79
2018-07-06T12:40:47.531Z,31.40
2018-07-06T12:41:47.555Z,31.75
2018-07-06T12:42:47.590Z,31.38
2018-07-06T12:43:47.629Z,31.04
2018-07-06T12:44:47.667Z,30.21
2018-07-06T12:45:47.704Z,30.59
2018-07-06T12:46:47.748Z,30.16
2018-07-06T12:47:47.782Z,30.88
2018-07-06T12:48:47.865Z,31.56
2018-07-06T12:49:47.856Z,30.54
2018-07-06T12:50:47.891Z,30.49
2018-07-06T12:51:47.924Z,29.63
2018-07-06T12:52:47.964Z,30.10
2018-07-06T12:53:47.998Z,30.04
2018-07-06T12:54:48.050Z,30.11
2018-07-06T12:55:48.075Z,30.72
2018-07-06T12:56:48.118Z,30.34
2018-07-06T12:57:48.154Z,30.91
2018-07-06T12:58:48.310Z,31.53
2018-07-06T12:59:48.229Z,31.34
2018-07-06T13:00:48.259Z,31.94
2018-07-06T13:01:48.305Z,31.71
2018-07-06T13:02:48.340Z,31.79
2018-07-06T13:03:48.376Z,31.37
2018-07-06T13:04:48.417Z,31.40
2018-07-06T13:05:48.456Z,31.16
2018-07-06T13:06:48.486Z,31.40
2018-07-06T13:07:48.527Z,30.75
2018-07-06T13:08:48.561Z,30.68
2018-07-06T13:09:48.601Z,31.35
2018-07-06T13:10:48.642Z,31.76
2018-07-06T13:11:48.677Z,32.69
2018-07-06T13:12:48.714Z,32.56
2018-07-06T13:13:48.749Z,33.26
2018-07-06T13:14:48.789Z,33.68
2018-07-06T13:15:48.837Z,32.59
2018-07-06T13:16:48.866Z,32.49
2018-07-06T13:17:48.907Z,31.41
2018-07-06T13:18:53.646Z,31.65